createdAt,value
2018-05-24T00:01:17.006Z,6.90
2018-05-24T00:03:47.573Z,7.70
2018-05-24T00:06:18.501Z,7.00
2018-05-24T00:08:49.536Z,7.03
2018-05-24T00:11:22.034Z,7.50
2018-05-24T00:13:52.219Z,6.97
2018-05-24T00:16:23.070Z,7.23
2018-05-24T00:18:55.130Z,7.50
2018-05-24T00:21:25.294Z,7.17
2018-05-24T00:23:55.802Z,7.80
2018-05-24T00:26:26.760Z,7.50
2018-05-24T00:28:57.029Z,7.00
2018-05-24T00:31:27.266Z,6.60
2018-05-24T00:33:58.180Z,7.73
2018-05-24T00:36:28.330Z,7.30
2018-05-24T00:38:59.261Z,6.83
2018-05-24T00:41:29.479Z,6.77
2018-05-24T00:43:59.661Z,7.43
2018-05-24T00:46:29.738Z,6.67
2018-05-24T00:49:00.610Z,7.17
2018-05-24T00:51:30.798Z,7.00
2018-05-24T00:54:02.115Z,6.73
2018-05-24T00:56:32.325Z,7.33
2018-05-24T00:59:02.431Z,6.40
2018-05-24T01:01:32.510Z,7.30
2018-05-24T01:04:02.769Z,7.33
2018-05-24T01:06:33.041Z,7.43
2018-05-24T01:09:03.621Z,7.37
2018-05-24T01:11:33.797Z,6.67
2018-05-24T01:14:05.394Z,7.60
2018-05-24T01:16:35.820Z,7.57
2018-05-24T01:19:06.751Z,7.00
2018-05-24T01:21:37.260Z,7.60
2018-05-24T01:24:07.967Z,7.17
2018-05-24T01:26:38.140Z,7.40
2018-05-24T01:29:09.358Z,7.77
2018-05-24T01:31:40.596Z,7.37
2018-05-24T01:34:12.801Z,7.47
2018-05-24T01:36:51.552Z,7.83
2018-05-24T01:39:21.721Z,7.97
2018-05-24T01:42:03.450Z,7.97
2018-05-24T01:44:34.791Z,7.03
2018-05-24T01:47:05.067Z,8.07
2018-05-24T01:49:37.044Z,7.37
2018-05-24T01:52:07.207Z,7.67
2018-05-24T01:54:37.615Z,8.30
2018-05-24T01:57:07.836Z,7.67
2018-05-24T01:59:38.016Z,8.67
2018-05-24T02:02:08.873Z,7.53
2018-05-24T02:04:39.421Z,7.70
2018-05-24T02:07:09.453Z,7.77
2018-05-24T02:09:39.573Z,7.73
2018-05-24T02:12:10.278Z,8.40
2018-05-24T02:14:40.410Z,7.53
2018-05-24T02:17:11.380Z,7.77
2018-05-24T02:19:42.004Z,8.27
2018-05-24T02:22:12.099Z,8.13
2018-05-24T02:24:42.273Z,8.03
2018-05-24T02:27:12.404Z,8.37
2018-05-24T02:29:43.125Z,8.23
2018-05-24T02:32:13.539Z,8.17
2018-05-24T02:34:44.034Z,7.70
2018-05-24T02:37:14.328Z,7.80
2018-05-24T02:39:45.367Z,7.80
2018-05-24T02:42:16.341Z,7.67
2018-05-24T02:44:46.381Z,7.90
2018-05-24T02:47:16.627Z,8.07
2018-05-24T02:49:46.714Z,7.67
2018-05-24T02:52:16.793Z,8.00
2018-05-24T02:54:47.858Z,7.77
2018-05-24T02:57:17.931Z,8.87
2018-05-24T02:59:48.195Z,8.17
2018-05-24T03:02:18.605Z,7.57
2018-05-24T03:04:48.734Z,8.37
2018-05-24T03:07:18.970Z,7.90
2018-05-24T03:09:50.919Z,8.27
2018-05-24T03:12:21.055Z,7.60
2018-05-24T03:14:52.631Z,8.30
2018-05-24T03:17:23.188Z,7.60
2018-05-24T03:19:54.117Z,8.37
2018-05-24T03:22:24.279Z,7.67
2018-05-24T03:24:54.362Z,8.07
2018-05-24T03:27:24.912Z,7.70
2018-05-24T03:29:55.051Z,7.73
2018-05-24T03:32:25.162Z,8.63
2018-05-24T03:34:56.526Z,8.73
2018-05-24T03:37:26.522Z,7.57
2018-05-24T03:39:57.324Z,8.20
2018-05-24T03:42:42.988Z,7.80
2018-05-24T03:45:13.885Z,8.10
2018-05-24T03:47:44.017Z,7.93
2018-05-24T03:50:14.127Z,7.77
2018-05-24T03:52:44.305Z,7.97
2018-05-24T03:55:14.833Z,7.80
2018-05-24T03:57:45.747Z,8.10
2018-05-24T04:04:33.425Z,8.33
2018-05-24T04:07:03.775Z,7.63
2018-05-24T04:09:34.348Z,7.07
2018-05-24T04:12:04.528Z,7.97
2018-05-24T04:14:34.723Z,7.37
2018-05-24T04:17:05.520Z,7.27
2018-05-24T04:19:35.591Z,7.23
2018-05-24T04:22:05.736Z,8.37
2018-05-24T04:24:37.142Z,7.40
2018-05-24T04:27:07.366Z,7.33
2018-05-24T04:29:37.442Z,7.53
2018-05-24T04:32:08.099Z,7.47
2018-05-24T04:34:38.208Z,7.43
2018-05-24T04:37:08.350Z,7.13
2018-05-24T04:39:39.003Z,7.23
2018-05-24T04:42:09.168Z,7.73
2018-05-24T04:44:39.443Z,7.37
2018-05-24T04:47:21.698Z,8.00
2018-05-24T04:49:52.009Z,6.70
2018-05-24T04:52:22.074Z,6.80
2018-05-24T04:54:52.545Z,6.43
2018-05-24T04:57:23.807Z,6.40
2018-05-24T04:59:53.893Z,6.37
2018-05-24T05:02:23.833Z,6.13
2018-05-24T05:04:54.973Z,6.10
2018-05-24T05:07:26.182Z,5.97
2018-05-24T05:09:56.936Z,5.63
2018-05-24T05:12:29.342Z,5.87
2018-05-24T05:14:59.773Z,6.20
2018-05-24T05:17:30.462Z,6.63
2018-05-24T05:20:01.596Z,6.20
2018-05-24T05:22:33.117Z,6.03
2018-05-24T05:26:05.973Z,6.47
2018-05-24T05:28:45.818Z,6.07
2018-05-24T05:31:18.869Z,6.65
2018-05-24T05:33:52.606Z,6.67
2018-05-24T05:36:27.722Z,7.30
2018-05-24T05:39:02.225Z,7.33
2018-05-24T05:41:37.337Z,6.87
2018-05-24T05:44:11.122Z,6.70
2018-05-24T05:46:45.302Z,6.73
2018-05-24T05:49:19.519Z,6.60
2018-05-24T05:51:55.826Z,6.20
2018-05-24T05:54:31.483Z,6.83
2018-05-24T05:57:05.602Z,6.63
2018-05-24T05:59:40.548Z,6.60
2018-05-24T06:02:13.991Z,8.90
2018-05-24T06:04:48.130Z,6.37
2018-05-24T06:07:20.998Z,6.63
2018-05-24T06:09:54.991Z,6.47
2018-05-24T06:12:26.368Z,6.10
2018-05-24T06:14:57.432Z,6.93
2018-05-24T06:17:28.695Z,6.63
2018-05-24T06:19:59.255Z,7.22
2018-05-24T06:22:30.157Z,7.53
2018-05-24T06:25:01.065Z,6.63
2018-05-24T06:27:33.196Z,7.40
2018-05-24T06:30:05.292Z,7.03
2018-05-24T06:32:36.582Z,6.97
2018-05-24T06:35:07.004Z,7.37
2018-05-24T06:37:37.592Z,7.77
2018-05-24T06:40:09.841Z,7.60
2018-05-24T06:42:42.848Z,7.37
2018-05-24T06:45:13.275Z,7.60
2018-05-24T06:47:44.316Z,7.60
2018-05-24T06:50:15.818Z,7.37
2018-05-24T06:52:47.765Z,7.40
2018-05-24T06:55:18.358Z,7.33
2018-05-24T06:57:50.714Z,7.20
2018-05-24T07:00:24.238Z,7.73
2018-05-24T07:02:57.944Z,7.40
2018-05-24T07:05:30.024Z,7.93
2018-05-24T07:08:01.043Z,7.00
2018-05-24T07:10:35.759Z,7.30
2018-05-24T07:13:06.915Z,7.17
2018-05-24T07:15:37.709Z,6.93
2018-05-24T07:18:09.574Z,7.20
2018-05-24T07:20:40.252Z,7.50
2018-05-24T07:23:12.013Z,7.00
2018-05-24T07:25:42.433Z,7.83
2018-05-24T07:28:14.392Z,7.13
2018-05-24T07:30:48.761Z,6.43
2018-05-24T07:33:28.176Z,6.22
2018-05-24T07:35:58.492Z,7.57
2018-05-24T07:38:29.426Z,6.27
2018-05-24T07:40:59.945Z,6.10
2018-05-24T07:43:30.967Z,5.77
2018-05-24T07:46:02.560Z,5.53
2018-05-24T07:48:32.949Z,6.33
2018-05-24T07:51:05.877Z,5.87
2018-05-24T07:53:40.564Z,6.32
2018-05-24T07:56:19.616Z,6.30
2018-05-24T07:58:52.805Z,5.63
2018-05-24T08:01:27.834Z,5.07
2018-05-24T08:04:01.593Z,5.17
2018-05-24T08:06:37.063Z,5.27
2018-05-24T08:09:46.098Z,5.07
2018-05-24T08:12:21.072Z,5.27
2018-05-24T08:14:54.564Z,5.17
2018-05-24T08:17:28.196Z,5.10
2018-05-24T08:20:02.197Z,5.00
2018-05-24T08:22:36.691Z,4.77
2018-05-24T08:25:10.736Z,5.03
2018-05-24T08:27:42.112Z,5.40
2018-05-24T08:30:14.024Z,5.10
2018-05-24T08:32:44.787Z,4.57
2018-05-24T08:35:15.647Z,5.20
2018-05-24T08:37:48.095Z,5.10
2018-05-24T08:40:20.062Z,5.13
2018-05-24T08:42:51.351Z,5.03
2018-05-24T08:45:23.556Z,7.55
2018-05-24T08:47:54.310Z,5.50
2018-05-24T08:50:25.989Z,5.47
2018-05-24T08:52:57.358Z,4.87
2018-05-24T08:55:29.547Z,5.97
2018-05-24T08:58:03.804Z,5.90
2018-05-24T09:00:37.975Z,5.73
2018-05-24T09:03:09.651Z,5.97
2018-05-24T09:05:45.202Z,7.47
2018-05-24T09:08:18.631Z,6.73
2018-05-24T09:10:49.136Z,6.27
2018-05-24T09:16:05.251Z,7.50
2018-05-24T09:18:39.927Z,6.97
2018-05-24T09:21:13.151Z,7.50
2018-05-24T09:23:45.601Z,7.60
2018-05-24T09:26:16.768Z,6.77
2018-05-24T09:28:50.061Z,6.47
2018-05-24T09:31:27.667Z,7.07
2018-05-24T09:34:00.873Z,7.50
2018-05-24T09:36:35.344Z,6.53
2018-05-24T09:39:12.450Z,7.33
2018-05-24T09:41:45.701Z,8.20
2018-05-24T09:44:16.541Z,7.63
2018-05-24T09:46:49.070Z,7.55
2018-05-24T09:49:21.674Z,7.97
2018-05-24T09:51:54.947Z,7.80
2018-05-24T09:54:28.877Z,7.83
2018-05-24T09:57:00.982Z,5.77
2018-05-24T09:59:38.314Z,5.53
2018-05-24T10:02:15.930Z,6.67
2018-05-24T10:04:59.028Z,6.43
2018-05-24T10:07:35.902Z,6.97
2018-05-24T10:10:11.420Z,7.10
2018-05-24T10:12:48.092Z,7.30
2018-05-24T10:15:37.905Z,6.70
2018-05-24T10:18:18.980Z,5.47
2018-05-24T10:20:56.664Z,6.13
2018-05-24T10:23:32.142Z,5.70
2018-05-24T10:26:20.948Z,6.80
2018-05-24T10:28:59.051Z,6.80
2018-05-24T10:31:34.255Z,7.00
2018-05-24T10:34:11.142Z,6.43
2018-05-24T10:36:46.179Z,6.40
2018-05-24T10:39:22.999Z,6.53
2018-05-24T10:41:59.684Z,6.93
2018-05-24T10:44:37.923Z,6.70
2018-05-24T10:47:14.324Z,6.90
2018-05-24T10:49:51.660Z,6.83
2018-05-24T10:52:29.352Z,6.60
2018-05-24T10:55:04.588Z,6.97
2018-05-24T10:57:40.889Z,7.23
2018-05-24T11:00:18.294Z,7.60
2018-05-24T11:02:53.902Z,7.80
2018-05-24T11:05:31.381Z,7.83
2018-05-24T11:08:04.400Z,7.77
2018-05-24T11:10:41.471Z,7.53
2018-05-24T11:13:15.971Z,7.83
2018-05-24T11:15:49.495Z,7.43
2018-05-24T11:21:27.926Z,7.97
2018-05-24T11:24:01.375Z,7.77
2018-05-24T11:26:33.009Z,7.93
2018-05-24T11:29:11.909Z,8.23
2018-05-24T11:31:47.946Z,7.63
2018-05-24T11:34:23.105Z,7.50
2018-05-24T11:36:56.589Z,9.00
2018-05-24T11:39:30.203Z,8.93
2018-05-24T11:42:05.152Z,8.57
2018-05-24T11:44:42.823Z,8.97
2018-05-24T11:50:24.740Z,6.60
2018-05-24T11:52:56.328Z,9.23
2018-05-24T11:55:28.109Z,8.50
2018-05-24T11:58:01.510Z,9.17
2018-05-24T12:00:40.342Z,7.90
2018-05-24T12:03:17.887Z,6.63
2018-05-24T12:05:50.422Z,7.80
2018-05-24T12:08:24.264Z,9.57
2018-05-24T12:10:56.572Z,9.90
2018-05-24T12:13:28.987Z,8.57
2018-05-24T12:16:02.346Z,8.93
2018-05-24T12:18:48.402Z,9.47
2018-05-24T12:21:25.075Z,9.60
2018-05-24T12:24:02.278Z,8.90
2018-05-24T12:26:35.323Z,10.63
2018-05-24T12:29:09.450Z,8.83
2018-05-24T12:31:48.376Z,9.27
2018-05-24T12:34:23.559Z,8.50
2018-05-24T12:36:54.656Z,8.30
2018-05-24T12:39:26.041Z,7.63
2018-05-24T12:42:00.728Z,7.80
2018-05-24T12:44:35.978Z,8.70
2018-05-24T12:47:12.648Z,7.80
2018-05-24T12:49:46.198Z,8.27
2018-05-24T12:52:19.303Z,8.57
2018-05-24T12:54:51.905Z,8.90
2018-05-24T12:57:22.777Z,8.43
2018-05-24T12:59:56.004Z,9.20
2018-05-24T13:02:27.981Z,10.33
2018-05-24T13:04:59.823Z,9.83
2018-05-24T13:07:31.648Z,11.57
2018-05-24T13:10:04.626Z,10.27
2018-05-24T13:12:37.677Z,10.03
2018-05-24T13:15:14.003Z,11.60
2018-05-24T13:17:46.259Z,9.70
2018-05-24T13:20:17.938Z,10.30
2018-05-24T13:22:49.995Z,10.13
2018-05-24T13:25:22.505Z,10.87
2018-05-24T13:27:55.679Z,12.07
2018-05-24T13:30:27.101Z,11.50
2018-05-24T13:32:59.739Z,10.87
2018-05-24T13:35:31.847Z,10.90
2018-05-24T13:38:08.216Z,10.70
2018-05-24T13:40:44.764Z,8.20
2018-05-24T13:43:19.634Z,10.17
2018-05-24T13:45:54.759Z,9.50
2018-05-24T13:48:30.863Z,9.93
2018-05-24T13:51:05.981Z,10.70
2018-05-24T13:53:41.807Z,9.00
2018-05-24T13:56:14.930Z,9.85
2018-05-24T13:58:49.474Z,10.03
2018-05-24T14:01:21.393Z,9.60
2018-05-24T14:03:53.252Z,9.77
2018-05-24T14:06:24.735Z,8.70
2018-05-24T14:09:08.403Z,9.47
2018-05-24T14:11:44.050Z,9.40
2018-05-24T14:14:17.084Z,9.70
2018-05-24T14:16:50.555Z,10.40
2018-05-24T14:19:22.534Z,7.77
2018-05-24T14:21:55.305Z,9.70
2018-05-24T14:24:30.882Z,11.37
2018-05-24T14:27:04.592Z,10.50
2018-05-24T14:29:38.449Z,10.53
2018-05-24T14:32:11.611Z,10.00
2018-05-24T14:34:43.812Z,9.63
2018-05-24T14:37:14.140Z,10.50
2018-05-24T14:39:46.033Z,9.10
2018-05-24T14:42:20.085Z,9.97
2018-05-24T14:44:51.475Z,10.30
2018-05-24T14:47:22.452Z,10.43
2018-05-24T14:49:58.216Z,9.97
2018-05-24T14:52:29.836Z,10.70
2018-05-24T14:55:07.054Z,10.97
2018-05-24T14:57:40.226Z,10.77
2018-05-24T15:00:12.957Z,9.77
2018-05-24T15:02:48.645Z,10.13
2018-05-24T15:05:19.619Z,10.10
2018-05-24T15:07:51.394Z,10.60
2018-05-24T15:10:22.921Z,9.07
2018-05-24T15:12:54.249Z,10.77
2018-05-24T15:15:26.911Z,10.07
2018-05-24T15:18:01.093Z,10.93
2018-05-24T15:20:31.726Z,8.80
2018-05-24T15:23:04.033Z,11.10
2018-05-24T15:25:39.595Z,10.50
2018-05-24T15:28:15.207Z,9.33
2018-05-24T15:30:47.068Z,8.30
2018-05-24T15:33:18.789Z,9.50
2018-05-24T15:35:50.197Z,9.50
2018-05-24T15:38:24.298Z,9.43
2018-05-24T15:40:56.624Z,8.63
2018-05-24T15:43:31.350Z,9.97
2018-05-24T15:46:04.030Z,9.27
2018-05-24T15:48:39.468Z,8.57
2018-05-24T15:51:12.877Z,8.77
2018-05-24T15:53:44.030Z,9.33
2018-05-24T15:56:15.444Z,9.60
2018-05-24T15:58:47.852Z,10.30
2018-05-24T16:01:18.492Z,10.30
2018-05-24T16:03:49.620Z,10.17
2018-05-24T16:06:21.516Z,9.60
2018-05-24T16:08:52.646Z,10.70
2018-05-24T16:11:23.620Z,11.30
2018-05-24T16:13:55.128Z,10.70
2018-05-24T16:16:25.471Z,10.20
2018-05-24T16:18:56.577Z,10.10
2018-05-24T16:21:27.671Z,9.77
2018-05-24T16:23:59.552Z,10.00
2018-05-24T16:26:32.808Z,9.23
2018-05-24T16:29:04.736Z,9.83
2018-05-24T16:31:36.076Z,9.80
2018-05-24T16:34:09.317Z,9.50
2018-05-24T16:36:42.043Z,9.70
2018-05-24T16:39:13.116Z,8.53
2018-05-24T16:41:44.719Z,8.47
2018-05-24T16:44:16.960Z,9.23
2018-05-24T16:46:48.097Z,9.43
2018-05-24T16:49:19.339Z,8.73
2018-05-24T16:51:51.684Z,9.43
2018-05-24T16:54:22.499Z,8.70
2018-05-24T16:56:55.281Z,8.73
2018-05-24T16:59:26.277Z,8.67
2018-05-24T17:01:57.752Z,8.03
2018-05-24T17:04:29.486Z,9.03
2018-05-24T17:07:00.628Z,9.97
2018-05-24T17:09:32.231Z,9.57
2018-05-24T17:12:02.675Z,8.90
2018-05-24T17:14:33.519Z,8.57
2018-05-24T17:17:05.323Z,8.90
2018-05-24T17:19:35.715Z,8.33
2018-05-24T17:22:09.412Z,9.37
2018-05-24T17:24:39.988Z,9.80
2018-05-24T17:27:14.258Z,8.80
2018-05-24T17:29:46.368Z,8.80
2018-05-24T17:32:18.832Z,9.67
2018-05-24T17:34:49.638Z,10.50
2018-05-24T17:37:23.609Z,9.93
2018-05-24T17:39:54.281Z,10.00
2018-05-24T17:42:25.339Z,9.80
2018-05-24T17:44:56.192Z,10.00
2018-05-24T17:47:29.054Z,10.40
2018-05-24T17:50:03.444Z,10.23
2018-05-24T17:52:34.015Z,11.73
2018-05-24T17:55:07.401Z,10.77
2018-05-24T17:57:37.830Z,10.03
2018-05-24T18:00:08.792Z,10.20
2018-05-24T18:02:40.471Z,9.83
2018-05-24T18:05:12.434Z,10.63
2018-05-24T18:07:45.470Z,10.90
2018-05-24T18:10:16.833Z,11.37
2018-05-24T18:12:48.465Z,10.20
2018-05-24T18:15:19.536Z,9.77
2018-05-24T18:17:51.886Z,10.73
2018-05-24T18:20:22.653Z,10.37
2018-05-24T18:22:54.835Z,10.80
2018-05-24T18:25:26.343Z,10.27
2018-05-24T18:28:01.504Z,10.37
2018-05-24T18:30:35.308Z,10.10
2018-05-24T18:33:07.511Z,10.20
2018-05-24T18:35:37.846Z,10.87
2018-05-24T18:38:08.552Z,10.40
2018-05-24T18:40:39.684Z,10.83
2018-05-24T18:43:10.510Z,11.37
2018-05-24T18:45:40.884Z,10.30
2018-05-24T18:48:12.730Z,10.57
2018-05-24T18:50:43.299Z,10.93
2018-05-24T18:53:14.660Z,10.60
2018-05-24T18:55:45.275Z,11.73
2018-05-24T18:58:18.218Z,11.27
2018-05-24T19:00:49.881Z,11.03
2018-05-24T19:03:23.024Z,11.37
2018-05-24T19:05:53.667Z,11.10
2018-05-24T19:08:26.747Z,10.93
2018-05-24T19:10:57.682Z,11.07
2018-05-24T19:13:28.225Z,10.97
2018-05-24T19:15:59.991Z,10.70
2018-05-24T19:18:33.608Z,10.57
2018-05-24T19:21:06.953Z,11.40
2018-05-24T19:26:25.189Z,10.67
2018-05-24T19:28:57.931Z,10.93
2018-05-24T19:31:30.615Z,10.47
2018-05-24T19:34:03.530Z,10.63
2018-05-24T19:36:36.557Z,10.97
2018-05-24T19:39:08.749Z,10.90
2018-05-24T19:41:42.953Z,11.60
2018-05-24T19:44:16.315Z,10.83
2018-05-24T19:46:47.495Z,10.87
2018-05-24T19:49:18.639Z,10.97
2018-05-24T19:51:49.030Z,10.63
2018-05-24T19:54:19.235Z,10.33
2018-05-24T19:56:50.763Z,9.17
2018-05-24T19:59:20.957Z,9.70
2018-05-24T20:01:51.173Z,10.90
2018-05-24T20:04:21.898Z,10.50
2018-05-24T20:06:52.122Z,9.43
2018-05-24T20:09:22.278Z,9.90
2018-05-24T20:11:53.405Z,11.03
2018-05-24T20:14:23.737Z,10.63
2018-05-24T20:16:54.088Z,11.63
2018-05-24T20:19:24.489Z,10.57
2018-05-24T20:21:55.524Z,10.17
2018-05-24T20:24:26.283Z,10.50
2018-05-24T20:26:56.635Z,10.80
2018-05-24T20:29:28.585Z,10.13
2018-05-24T20:31:59.965Z,10.57
2018-05-24T20:34:30.311Z,11.43
2018-05-24T20:37:00.604Z,11.73
2018-05-24T20:39:31.295Z,11.40
2018-05-24T20:42:01.550Z,11.17
2018-05-24T20:44:31.793Z,11.60
2018-05-24T20:47:02.298Z,11.53
2018-05-24T20:49:33.188Z,11.13
2018-05-24T20:52:03.373Z,11.30
2018-05-24T20:54:33.881Z,12.23
2018-05-24T20:57:04.777Z,11.97
2018-05-24T20:59:35.483Z,11.70
2018-05-24T21:02:05.614Z,11.37
2018-05-24T21:04:36.024Z,12.10
2018-05-24T21:07:07.289Z,12.20
2018-05-24T21:09:37.621Z,12.03
2018-05-24T21:12:07.905Z,11.87
2018-05-24T21:14:39.436Z,14.23
2018-05-24T21:17:10.147Z,13.20
2018-05-24T21:19:40.404Z,12.50
2018-05-24T21:22:11.166Z,12.90
2018-05-24T21:24:42.277Z,12.40
2018-05-24T21:27:13.374Z,12.77
2018-05-24T21:29:43.502Z,12.43
2018-05-24T21:32:13.817Z,13.83
2018-05-24T21:34:44.669Z,12.57
2018-05-24T21:37:15.187Z,13.90
2018-05-24T21:39:45.632Z,13.00
2018-05-24T21:42:16.014Z,13.53
2018-05-24T21:44:46.459Z,12.83
2018-05-24T21:47:16.708Z,13.60
2018-05-24T21:49:49.184Z,11.97
2018-05-24T21:52:20.654Z,12.67
2018-05-24T21:54:51.433Z,13.83
2018-05-24T21:57:21.519Z,12.67
2018-05-24T21:59:52.335Z,12.13
2018-05-24T22:02:23.807Z,12.53
2018-05-24T22:04:54.605Z,12.37
2018-05-24T22:07:24.709Z,11.77
2018-05-24T22:09:58.011Z,12.63
2018-05-24T22:12:28.035Z,11.73
2018-05-24T22:14:59.581Z,12.23
2018-05-24T22:17:30.387Z,12.60
2018-05-24T22:20:00.478Z,12.37
2018-05-24T22:22:30.518Z,13.53
2018-05-24T22:25:01.119Z,11.73
2018-05-24T22:27:31.525Z,12.50
2018-05-24T22:30:01.891Z,11.13
2018-05-24T22:32:33.843Z,12.77
2018-05-24T22:35:05.480Z,11.77
2018-05-24T22:37:35.555Z,11.27
2018-05-24T22:40:07.398Z,11.20
2018-05-24T22:42:38.201Z,11.83
2018-05-24T22:45:08.343Z,11.90
2018-05-24T22:47:39.387Z,12.13
2018-05-24T22:50:10.250Z,11.43
2018-05-24T22:52:40.212Z,11.07
2018-05-24T22:55:10.611Z,11.90
2018-05-24T22:57:40.594Z,12.13
2018-05-24T23:00:11.599Z,11.27
2018-05-24T23:02:42.904Z,11.73
2018-05-24T23:05:14.007Z,11.17
2018-05-24T23:07:44.574Z,10.57
2018-05-24T23:10:14.915Z,10.20
2018-05-24T23:12:46.182Z,11.73
2018-05-24T23:15:16.780Z,11.40
2018-05-24T23:17:46.932Z,11.80
2018-05-24T23:20:17.011Z,11.63
2018-05-24T23:22:47.542Z,12.43
2018-05-24T23:25:17.640Z,11.07
2018-05-24T23:27:48.538Z,11.97
2018-05-24T23:30:18.997Z,11.10
2018-05-24T23:32:49.777Z,11.33
2018-05-24T23:35:19.850Z,10.77
2018-05-24T23:37:51.035Z,11.47
2018-05-24T23:40:21.396Z,11.40
2018-05-24T23:42:51.582Z,10.90
2018-05-24T23:45:22.073Z,10.97
